Suches, Georgia
Current Conditions -  °F | °C
As of 12:53 PM on Wednesday 28 Jan 2015 (Local Time) from KGVL Reporting Station
Clear Clear  
Wind Chill: 46°   Ceiling: Unl
Heat Index: 46°   Visibility: 10mi
Dew Point: 19°   Wind: 0mph
Humidity: 34%   Direction: NA
Pressure: 30.25"   Gusts: NA
Location:  34.72°N, 84.05°W
Report Text: KGVL 281753Z AUTO 00000KT 10SM CLR 08/M07 A3025 RMK AO2 SLP248 T00781072 10078 21017 50002
Loading
Personal Weather Stations






























Interactive Weather Map New forecast layout! Learn more

10-Day Weather Forecast

Advertisements
Track Severe Weather on mobile